createdAt,value
2018-07-05T07:38:15.603Z,23.24
2018-07-05T07:43:13.040Z,23.74
2018-07-05T07:48:11.793Z,23.53
2018-07-05T07:53:09.699Z,23.81
2018-07-05T07:58:10.525Z,23.53
2018-07-05T08:03:09.270Z,23.45
2018-07-05T08:08:08.118Z,23.56
2018-07-05T08:13:07.818Z,23.81
2018-07-05T08:18:00.592Z,23.88
2018-07-05T08:22:54.389Z,24.48
2018-07-05T08:27:50.713Z,24.16
2018-07-05T08:32:49.037Z,24.00
2018-07-05T08:37:47.410Z,24.35
2018-07-05T08:42:45.012Z,24.29
2018-07-05T08:47:42.367Z,24.26
2018-07-05T08:52:41.072Z,24.19
2018-07-05T08:57:39.516Z,24.18
2018-07-05T09:02:38.088Z,24.07
2018-07-05T09:07:36.284Z,23.97
2018-07-05T09:12:34.885Z,23.77
2018-07-05T09:17:32.184Z,23.24
2018-07-05T09:22:30.521Z,23.35
2018-07-05T09:27:28.201Z,23.16
2018-07-05T09:32:25.732Z,22.67
2018-07-05T09:37:23.239Z,22.90
2018-07-05T09:42:21.637Z,23.12
2018-07-05T09:47:20.987Z,22.64
2018-07-05T09:52:18.596Z,22.91
2018-07-05T09:57:17.928Z,22.71
2018-07-05T10:02:15.232Z,22.51
2018-07-05T10:07:12.392Z,22.56
2018-07-05T10:12:09.886Z,22.70
2018-07-05T10:17:07.431Z,22.82
2018-07-05T10:22:05.284Z,22.81
2018-07-05T10:27:02.714Z,22.76
2018-07-05T10:32:16.074Z,22.57
2018-07-05T10:37:19.961Z,22.02
2018-07-05T10:42:33.257Z,22.07
2018-07-05T10:47:48.497Z,22.01
2018-07-05T12:45:44.192Z,24.58
2018-07-05T12:50:58.448Z,24.74
2018-07-05T12:56:11.898Z,25.00
2018-07-05T13:01:25.192Z,25.14
2018-07-05T13:06:39.165Z,25.18
2018-07-05T13:11:53.223Z,25.52
2018-07-05T13:17:07.638Z,25.84
2018-07-05T13:22:19.777Z,26.37
2018-07-05T13:27:33.871Z,26.40
2018-07-05T13:32:46.534Z,26.53
2018-07-05T13:38:01.515Z,25.63
2018-07-05T13:43:14.981Z,24.87
2018-07-05T13:48:29.050Z,24.55
2018-07-05T13:53:43.349Z,25.41
2018-07-05T13:58:50.995Z,25.50
2018-07-05T14:04:04.276Z,25.56
2018-07-05T14:09:18.697Z,24.97
2018-07-05T14:14:32.009Z,25.17
2018-07-05T14:19:50.758Z,24.95
2018-07-05T14:25:05.168Z,24.95
2018-07-05T14:30:18.465Z,25.26
2018-07-05T14:35:32.533Z,25.56
2018-07-05T14:40:46.702Z,25.61
2018-07-05T14:45:59.792Z,25.42
2018-07-05T14:51:13.059Z,25.43
2018-07-05T14:56:26.214Z,25.39
2018-07-05T15:01:39.487Z,25.48
2018-07-05T15:06:52.943Z,25.03
2018-07-05T15:12:06.549Z,25.40
2018-07-05T15:17:24.827Z,25.63
2018-07-05T15:22:38.571Z,25.53
2018-07-05T15:27:53.002Z,25.50
2018-07-05T15:33:07.210Z,25.34
2018-07-05T15:38:20.533Z,25.48
2018-07-05T15:43:33.919Z,24.95
2018-07-05T15:48:48.396Z,24.27
2018-07-05T15:54:01.685Z,24.38
2018-07-05T15:59:16.035Z,24.53
2018-07-05T16:04:28.961Z,24.87
2018-07-05T16:09:43.300Z,24.83
2018-07-05T16:14:57.359Z,24.46
2018-07-05T16:20:11.453Z,24.64
2018-07-05T16:25:25.764Z,24.54
2018-07-05T16:30:40.096Z,24.46
2018-07-05T16:35:58.112Z,24.54
2018-07-05T16:41:12.310Z,24.54
2018-07-05T16:46:26.448Z,24.77
2018-07-05T16:51:39.745Z,24.82
2018-07-05T16:56:54.428Z,24.96
2018-07-05T17:02:07.664Z,25.01
2018-07-05T17:07:21.767Z,24.94
2018-07-05T17:12:36.067Z,24.94
2018-07-05T17:17:50.094Z,24.83
2018-07-05T17:23:04.216Z,24.54
2018-07-05T17:28:18.536Z,24.08
2018-07-05T17:33:32.827Z,24.04
2018-07-05T17:38:46.940Z,23.98
2018-07-05T17:44:01.210Z,23.78
2018-07-05T17:49:15.288Z,23.91
2018-07-05T17:54:29.582Z,23.67
2018-07-05T17:59:45.753Z,23.43
2018-07-05T18:04:59.120Z,23.04
2018-07-05T18:10:13.196Z,22.80
2018-07-05T18:15:27.713Z,22.61
2018-07-05T18:20:43.964Z,22.41
2018-07-05T18:25:57.201Z,22.30
2018-07-05T18:31:10.695Z,22.11
2018-07-05T18:36:25.085Z,22.05
2018-07-05T18:41:33.428Z,21.97
2018-07-05T18:46:47.807Z,21.98
2018-07-05T18:52:01.315Z,21.82
2018-07-05T18:57:18.328Z,21.82
2018-07-05T19:02:32.413Z,21.71
2018-07-05T19:07:46.518Z,21.66
2018-07-05T19:13:00.114Z,20.99
2018-07-05T19:18:14.436Z,20.80
2018-07-05T19:23:29.424Z,20.46
2018-07-05T19:28:43.555Z,20.14
2018-07-05T19:33:57.628Z,19.68
2018-07-05T19:39:11.917Z,19.40
2018-07-05T19:44:26.972Z,18.33
2018-07-05T19:49:41.120Z,17.76
2018-07-05T19:54:57.598Z,17.26
2018-07-05T20:00:11.974Z,17.12
2018-07-05T20:05:26.291Z,17.15
2018-07-05T20:10:40.325Z,17.18
2018-07-05T20:15:53.553Z,17.36
2018-07-05T20:21:07.747Z,17.42
2018-07-05T20:26:21.943Z,17.49
2018-07-05T20:31:35.064Z,17.64
2018-07-05T20:36:49.119Z,17.77
2018-07-05T20:42:03.298Z,17.83
2018-07-05T20:47:20.461Z,17.93
2018-07-05T20:52:33.561Z,18.02
2018-07-05T20:57:47.779Z,18.03
2018-07-05T21:03:01.843Z,18.04
2018-07-05T21:08:16.054Z,18.06
2018-07-05T21:13:30.443Z,18.06
2018-07-05T21:18:44.604Z,18.05
2018-07-05T21:23:58.625Z,18.06
2018-07-05T21:29:11.694Z,18.01
2018-07-05T21:34:24.954Z,18.00
2018-07-05T21:39:38.342Z,18.01
2018-07-05T21:44:51.539Z,18.07
2018-07-05T21:50:05.692Z,18.01
2018-07-05T21:55:20.007Z,17.97
2018-07-05T22:00:34.108Z,17.96
2018-07-05T22:05:48.317Z,17.89
2018-07-05T22:11:02.878Z,17.88
2018-07-05T22:16:16.269Z,17.88
2018-07-05T22:21:29.662Z,17.83
2018-07-05T22:26:41.960Z,17.81
2018-07-05T22:31:57.339Z,17.74
2018-07-05T22:37:10.372Z,17.72
2018-07-05T22:42:24.637Z,17.78
2018-07-05T22:47:37.800Z,17.76
2018-07-05T22:52:51.968Z,17.84
2018-07-05T22:58:06.128Z,17.87
2018-07-05T23:03:19.345Z,17.90
2018-07-05T23:08:32.633Z,17.87
2018-07-05T23:13:46.759Z,17.75
2018-07-05T23:18:59.991Z,17.73
2018-07-05T23:24:12.153Z,17.75
2018-07-05T23:29:25.390Z,17.77
2018-07-05T23:34:39.416Z,17.79
2018-07-05T23:39:53.487Z,17.85
2018-07-05T23:45:07.664Z,17.88
2018-07-05T23:50:21.542Z,18.00
2018-07-05T23:55:37.169Z,17.89
